Météo ( Metar ) des aéroports voisins de france et espagne.

 

LFBZ - Biarritz, Pays basque
Nouvelle Aquitaine - France
Distance direct 32 km Sud
Mise à jour: 06/10/2022 05:30
couvert
couvert
 Wind from calm
Vent: calme
Température: 17°C
Point de rosée: 16°C
Humidité: 94%
Baromètre: 1029 hPa
Clouds: couvert
Visibility: 10 km
Cloud details: Few Clouds 396 m
couvert 1158 m
2022/10/06 03:30 LFBZ 060330Z AUTO 00000KT 9999 FEW013 OVC038 17/16 Q1029 NOSIG
LFBY - Dax Seyresse,
Nouvelle Aquitaine - France
Distance direct 29 km Est
Mise à jour: 06/10/2022 05:30

 Wind from varies
Vent: varies 2 km/h
Température: 17°C
Point de rosée: 16°C
Humidité: 94%
Baromètre: 1029 hPa
Visibility: 6 km
2022/10/06 03:30 LFBY 060330Z AUTO VRB01KT 6000 // ////// 17/16 Q1029
 
LFBD - Bordeaux Mérignac,
Nouvelle Aquitaine - France
Distance direct 156 km Nord
Mise à jour: 06/10/2022 05:30
couvert
couvert
 Wind from N
Vent: N 13 km/h
Température: 17°C
Point de rosée: 16°C
Humidité: 94%
Baromètre: 1029 hPa
Clouds: couvert
Visibility: 10 km
Cloud details: couvert 183 m
2022/10/06 03:30 LFBD 060330Z AUTO 36007KT 340V070 9999 OVC006 17/16 Q1029 TEMPO 3000 -RADZ
LFBP - Pau Pyrennées atlantiques,
Nouvelle Aquitaine - France
Distance direct 120 km SSE
Mise à jour: 06/10/2022 05:30
couvert
couvert
 Wind from calm
Vent: calme
Température: 16°C
Point de rosée: 15°C
Humidité: 94%
Baromètre: 1029 hPa
Clouds: couvert
Visibility: 10 km
Cloud details: Few Clouds 305 m
couvert 1036 m
2022/10/06 03:30 LFBP 060330Z AUTO 00000KT 9999 FEW010 OVC034 16/15 Q1029 BECMG BKN014 OVC025
 
LFBA - Agen La Garenne,
Lot et Garonne - France
Distance direct 210 km ENE
Mise à jour: 06/10/2022 05:30
couvert
couvert
 Wind from ONO
Vent: ONO 6 km/h
Température: 16°C
Point de rosée: 14°C
Humidité: 88%
Baromètre: 1028 hPa
Clouds: couvert
Visibility: 10 km
Cloud details: couvert 853 m
2022/10/06 03:30 LFBA 060330Z AUTO 29003KT 9999 OVC028 16/14 Q1028
LFBT - Tarbes Lourdes,
Hautes Pyrennées - France
Distance direct 150 km ESE
Mise à jour: 06/10/2022 05:30
couvert
couvert
 Wind from SE
Vent: SE 7 km/h
Température: 15°C
Point de rosée: 14°C
Humidité: 94%
Baromètre: 1029 hPa
Clouds: couvert
Visibility: 10 km
Cloud details: couvert 792 m
2022/10/06 03:30 LFBT 060330Z AUTO 14004KT 9999 OVC026 15/14 Q1029 TEMPO OVC012
 
LFBO - Toulouse Blagnac,
Haute Garonne,- France
Distance direct 250 km EST
Mise à jour: 06/10/2022 05:30
couvert
couvert
 Wind from O
Vent: O 13 km/h
Température: 16°C
Point de rosée: 15°C
Humidité: 94%
Baromètre: 1029 hPa
Clouds: couvert
Visibility: 10 km
Cloud details: nuageux 305 m
couvert 427 m
2022/10/06 03:30 LFBO 060330Z AUTO 28007KT 9999 BKN010 OVC014 16/15 Q1029 NOSIG
LFBE - Bergerac, Dordogne,
Nouvelle Aquitaine - France
Distance direct 240 km EST
Mise à jour: 06/10/2022 05:30
couvert
couvert
 Wind from OSO
Vent: OSO 6 km/h
Température: 15°C
Point de rosée: 15°C
Humidité: 100%
Baromètre: 1028 hPa
Clouds: couvert
Visibility: 10 km
Cloud details: couvert 945 m
2022/10/06 03:30 LFBE 060330Z AUTO 25003KT 9999 OVC031 15/15 Q1028 TEMPO 2000 DZRA BR OVC005
 
LESO - Saint Sebastien,
Pays basque/ESPANA
Distance direct 94 km ESE
Mise à jour: 06/10/2022 05:30
couvert
couvert
 Wind from varies
Vent: varies 4 km/h
Température: 18°C
Point de rosée: 16°C
Humidité: 88%
Baromètre: 1029 hPa
Clouds: couvert
Visibility: 10 km
Cloud details: couvert 1158 m
2022/10/06 03:30 LESO 060330Z AUTO VRB02KT 9999 OVC038 18/16 Q1029
LEBB - Bilbao,,
Vizcaya/ESPANA
Distance direct 180 km ESE
Mise à jour: 06/10/2022 05:30
couvert
couvert
 Wind from calm
Vent: calme
Température: 17°C
Point de rosée: 16°C
Humidité: 94%
Baromètre: 1029 hPa
Clouds: couvert
Visibility: 10 km
Cloud details: nuageux 701 m
couvert 945 m
2022/10/06 03:30 LEBB 060330Z 00000KT 9999 BKN023 OVC031 17/16 Q1029 NOSIG
 
LEVT - Vitoria-Gasteiz,
Pays basque/ESPANA
Distance direct 190 km OSO
Mise à jour: 06/10/2022 05:30
partiellement nuageux
partiellement nuageux
 Wind from ESE
Vent: ESE 4 km/h
Température: 11°C
Point de rosée: 11°C
Humidité: 100%
Baromètre: 1029 hPa
Clouds: partiellement nuageux
Visibility: 10 km
Cloud details: Few Clouds 792 m
partiellement nuageux 1036 m
2022/10/06 03:30 LEVT 060330Z 11002KT 9999 FEW026 SCT034 11/11 Q1029
LEPP - Pamplona,
Pays basque/ESPANA
Distance direct 142 km SUD
Mise à jour: 06/10/2022 05:30
nuageux
nuageux
 Wind from N
Vent: N 7 km/h
Température: 15°C
Point de rosée: 12°C
Humidité: 82%
Baromètre: 1028 hPa
Clouds: nuageux
Visibility: 10 km
Cloud details: nuageux 792 m
2022/10/06 03:30 LEPP 060330Z 35004KT 310V040 9999 BKN026 15/12 Q1028
 
LELO - Logrono,
Pays basque/ESPANA
Distance direct 122 km SSO
Mise à jour: 06/10/2022 05:30
clair
clair
 Wind from varies
Vent: varies 2 km/h
Température: 12°C
Point de rosée: 10°C
Humidité: 88%
Baromètre: 1029 hPa
Résumé: clair
Visibility: greater than 10 km
2022/10/06 03:30 LELO 060330Z AUTO VRB01KT CAVOK 12/10 Q1029
LEZG - Saragosse,
Aragon,/ESPANA
Distance direct 302 km SUD
Mise à jour: 06/10/2022 05:30
clair
clair
 Wind from O
Vent: O 20 km/h
Température: 16°C
Point de rosée: 12°C
Humidité: 77%
Baromètre: 1027 hPa
Résumé: clair
Visibility: greater than 10 km
2022/10/06 03:30 LEZG 060330Z 27011KT CAVOK 16/12 Q1027